createdAt,value
2017-12-08T07:18:32.841Z,993.34
2017-12-08T07:19:32.848Z,993.36
2017-12-08T07:20:32.854Z,993.36
2017-12-08T07:21:32.862Z,993.42
2017-12-08T07:22:32.870Z,993.42
2017-12-08T07:23:32.877Z,993.41
2017-12-08T07:24:32.883Z,993.39
2017-12-08T07:25:32.891Z,993.43
2017-12-08T07:26:32.901Z,993.44
2017-12-08T07:27:32.916Z,993.47
2017-12-08T07:28:32.922Z,993.42
2017-12-08T07:29:32.928Z,993.47
2017-12-08T07:30:32.936Z,993.44
2017-12-08T07:31:32.945Z,993.42
2017-12-08T07:32:32.954Z,993.45
2017-12-08T07:33:32.964Z,993.45
2017-12-08T07:34:32.977Z,993.45
2017-12-08T07:35:32.983Z,993.49
2017-12-08T07:36:32.994Z,993.51
2017-12-08T07:37:33.003Z,993.53
2017-12-08T07:38:33.012Z,993.55
2017-12-08T07:39:33.024Z,993.53
2017-12-08T07:40:33.033Z,993.48
2017-12-08T07:41:33.046Z,993.5
2017-12-08T07:42:33.055Z,993.5
2017-12-08T07:43:33.066Z,993.49
2017-12-08T07:44:33.076Z,993.56
2017-12-08T07:45:33.086Z,993.54
2017-12-08T07:46:33.106Z,993.52
2017-12-08T07:47:33.107Z,993.55
2017-12-08T07:48:33.120Z,993.51
2017-12-08T07:49:33.134Z,993.51
2017-12-08T07:50:33.140Z,993.53
2017-12-08T07:51:33.151Z,993.57
2017-12-08T07:52:33.182Z,993.61
2017-12-08T07:53:33.175Z,993.55
2017-12-08T07:54:33.184Z,993.61
2017-12-08T07:55:33.195Z,993.57
2017-12-08T07:56:33.207Z,993.58
2017-12-08T07:57:33.218Z,993.57
2017-12-08T07:58:33.229Z,993.57
2017-12-08T07:59:33.240Z,993.56
2017-12-08T08:00:33.252Z,993.55
2017-12-08T08:01:33.262Z,993.57
2017-12-08T08:02:33.274Z,993.57
2017-12-08T08:03:33.286Z,993.62
2017-12-08T08:04:33.297Z,993.64
2017-12-08T08:05:33.309Z,993.63
2017-12-08T08:06:33.321Z,993.65
2017-12-08T08:07:33.333Z,993.63
2017-12-08T08:08:33.344Z,993.64
2017-12-08T08:09:33.357Z,993.68
2017-12-08T08:10:33.368Z,993.67
2017-12-08T08:11:33.380Z,993.68
2017-12-08T08:12:33.391Z,993.7
2017-12-08T08:13:33.403Z,993.64
2017-12-08T08:14:33.414Z,993.74
2017-12-08T08:15:33.426Z,993.73
2017-12-08T08:16:33.438Z,993.79
2017-12-08T08:17:33.450Z,993.72
2017-12-08T08:18:33.462Z,993.77
2017-12-08T08:19:33.473Z,993.8
2017-12-08T08:20:33.485Z,993.8
2017-12-08T08:21:33.497Z,993.77
2017-12-08T08:22:33.508Z,993.75
2017-12-08T08:23:33.519Z,993.76
2017-12-08T08:24:33.532Z,993.73
2017-12-08T08:25:33.545Z,993.73
2017-12-08T08:26:33.556Z,993.78
2017-12-08T08:27:33.569Z,993.79
2017-12-08T08:28:33.580Z,993.8
2017-12-08T08:29:33.593Z,993.78
2017-12-08T08:30:33.604Z,993.75
2017-12-08T08:31:33.616Z,993.76
2017-12-08T08:32:33.630Z,993.75
2017-12-08T08:33:33.641Z,993.74
2017-12-08T08:34:33.655Z,993.74
2017-12-08T08:35:33.664Z,993.86
2017-12-08T08:36:33.677Z,993.84
2017-12-08T08:37:33.689Z,993.89
2017-12-08T08:38:33.701Z,993.89
2017-12-08T08:39:33.712Z,993.91
2017-12-08T08:40:33.761Z,993.92
2017-12-08T08:41:33.736Z,993.96
2017-12-08T08:42:33.750Z,993.98
2017-12-08T08:43:33.764Z,994.01
2017-12-08T08:44:33.773Z,994.03
2017-12-08T08:45:33.788Z,994.08
2017-12-08T08:46:33.799Z,994.07
2017-12-08T08:47:33.823Z,994.08
2017-12-08T08:48:33.823Z,994.1
2017-12-08T08:49:33.834Z,994.1
2017-12-08T08:50:33.846Z,994.11
2017-12-08T08:51:33.860Z,994.11
2017-12-08T08:52:33.874Z,994.16
2017-12-08T08:53:33.884Z,994.18
2017-12-08T08:54:33.896Z,994.16
2017-12-08T08:55:33.910Z,994.17
2017-12-08T08:56:33.922Z,994.13
2017-12-08T08:57:33.933Z,994.17
2017-12-08T08:58:33.946Z,994.15
2017-12-08T08:59:33.963Z,994.16
2017-12-08T09:00:33.970Z,994.17
2017-12-08T09:01:33.982Z,994.17
2017-12-08T09:02:33.993Z,994.17
2017-12-08T09:03:34.007Z,994.15
2017-12-08T09:04:34.022Z,994.16
2017-12-08T09:05:34.034Z,994.19
2017-12-08T09:06:34.042Z,994.23
2017-12-08T09:07:34.060Z,994.21
2017-12-08T09:08:34.069Z,994.22
2017-12-08T09:09:34.083Z,994.22
2017-12-08T09:10:34.093Z,994.24
2017-12-08T09:11:34.106Z,994.26
2017-12-08T09:12:34.118Z,994.21
2017-12-08T09:13:34.129Z,994.27
2017-12-08T09:14:34.143Z,994.29
2017-12-08T09:15:34.156Z,994.26
2017-12-08T09:16:34.168Z,994.28
2017-12-08T09:17:34.183Z,994.27
2017-12-08T09:18:34.193Z,994.32
2017-12-08T09:19:34.253Z,994.27
2017-12-08T09:20:34.218Z,994.29
2017-12-08T09:21:34.229Z,994.28
2017-12-08T09:22:34.244Z,994.28
2017-12-08T09:23:34.256Z,994.35
2017-12-08T09:24:34.268Z,994.4
2017-12-08T09:25:34.280Z,994.3
2017-12-08T09:26:34.292Z,994.33
2017-12-08T09:27:34.306Z,994.29
2017-12-08T09:28:34.318Z,994.33
2017-12-08T09:29:34.331Z,994.33
2017-12-08T09:30:34.343Z,994.36
2017-12-08T09:31:34.359Z,994.39
2017-12-08T09:32:34.369Z,994.39
2017-12-08T09:33:34.382Z,994.37
2017-12-08T09:34:34.396Z,994.44
2017-12-08T09:35:34.405Z,994.42
2017-12-08T09:36:34.419Z,994.49
2017-12-08T09:37:34.431Z,994.43
2017-12-08T09:38:34.449Z,994.44
2017-12-08T09:39:34.456Z,994.46
2017-12-08T09:40:34.468Z,994.42
2017-12-08T09:41:34.482Z,994.41
2017-12-08T09:42:34.495Z,994.38
2017-12-08T09:43:34.506Z,994.4
2017-12-08T09:44:34.520Z,994.39
2017-12-08T09:45:34.532Z,994.4
2017-12-08T09:46:34.545Z,994.33
2017-12-08T09:47:34.557Z,994.36
2017-12-08T09:48:34.569Z,994.42
2017-12-08T09:49:34.583Z,994.38
2017-12-08T09:50:34.596Z,994.42
2017-12-08T09:51:34.611Z,994.44
2017-12-08T09:52:34.622Z,994.42
2017-12-08T09:53:34.634Z,994.46
2017-12-08T09:54:34.645Z,994.51
2017-12-08T09:55:34.658Z,994.46
2017-12-08T09:56:34.672Z,994.51
2017-12-08T09:57:34.687Z,994.52
2017-12-08T09:58:34.696Z,994.48
2017-12-08T09:59:34.710Z,994.41
2017-12-08T10:00:34.723Z,994.51
2017-12-08T10:01:34.734Z,994.42
2017-12-08T10:02:34.748Z,994.34
2017-12-08T10:03:34.760Z,994.36
2017-12-08T10:04:34.773Z,994.37
2017-12-08T10:05:34.784Z,994.37
2017-12-08T10:06:34.800Z,994.35
2017-12-08T10:07:34.813Z,994.42
2017-12-08T10:08:34.824Z,994.34
2017-12-08T10:09:34.837Z,994.38
2017-12-08T10:10:34.854Z,994.32
2017-12-08T10:11:34.863Z,994.36
2017-12-08T10:12:34.877Z,994.36
2017-12-08T10:13:34.888Z,994.36
2017-12-08T10:14:34.904Z,994.35
2017-12-08T10:15:34.915Z,994.39
2017-12-08T10:16:34.926Z,994.28
2017-12-08T10:17:34.940Z,994.38
2017-12-08T10:18:34.953Z,994.29
2017-12-08T10:19:34.966Z,994.27
2017-12-08T10:20:34.978Z,994.3
2017-12-08T10:21:34.992Z,994.28
2017-12-08T10:22:35.006Z,994.26
2017-12-08T10:23:35.019Z,994.25
2017-12-08T10:24:35.037Z,994.21
2017-12-08T10:25:35.043Z,994.29
2017-12-08T10:26:35.061Z,994.27
2017-12-08T10:27:35.070Z,994.26
2017-12-08T10:28:35.085Z,994.17
2017-12-08T10:29:35.097Z,994.18
2017-12-08T10:30:35.109Z,994.21
2017-12-08T10:31:35.126Z,994.19
2017-12-08T10:32:35.135Z,994.19
2017-12-08T10:33:35.147Z,994.2
2017-12-08T10:34:35.162Z,994.18
2017-12-08T10:35:35.173Z,994.12
2017-12-08T10:36:35.186Z,994.19
2017-12-08T10:37:35.201Z,994.08
2017-12-08T10:38:35.213Z,994.14
2017-12-08T10:39:35.225Z,994.11
2017-12-08T10:40:35.239Z,994.08
2017-12-08T10:41:35.252Z,994.09
2017-12-08T10:42:35.265Z,994.11
2017-12-08T10:43:35.279Z,994.12
2017-12-08T10:44:35.292Z,994.12
2017-12-08T10:45:35.303Z,994.05
2017-12-08T10:46:35.316Z,994.1
2017-12-08T10:47:35.329Z,994.13
2017-12-08T10:48:35.342Z,994.19
2017-12-08T10:49:35.354Z,994.15
2017-12-08T10:50:35.371Z,994.13
2017-12-08T10:51:35.383Z,994.14
2017-12-08T10:52:35.397Z,994.1
2017-12-08T10:53:35.413Z,994.1
2017-12-08T10:54:35.421Z,994.16
2017-12-08T10:55:35.510Z,994.18
2017-12-08T10:56:35.447Z,994.18
2017-12-08T10:57:35.461Z,994.19
2017-12-08T10:58:35.473Z,994.27
2017-12-08T10:59:35.487Z,994.18
2017-12-08T11:00:35.500Z,994.13
2017-12-08T11:01:35.518Z,994.21
2017-12-08T11:02:35.533Z,994.18
2017-12-08T11:03:35.545Z,994.16
2017-12-08T11:04:35.608Z,994.1
2017-12-08T11:05:35.565Z,994.11
2017-12-08T11:06:35.579Z,994.11
2017-12-08T11:07:35.596Z,994.08
2017-12-08T11:08:35.605Z,994.16
2017-12-08T11:09:35.619Z,994.11
2017-12-08T11:10:35.631Z,994.03
2017-12-08T11:11:35.644Z,994.05
2017-12-08T11:12:35.658Z,994.05
2017-12-08T11:13:35.671Z,993.99
2017-12-08T11:14:35.683Z,994.05
2017-12-08T11:15:35.699Z,994.01
2017-12-08T11:16:35.711Z,994.01
2017-12-08T11:17:35.724Z,994.05
2017-12-08T11:18:35.737Z,994.02
2017-12-08T11:19:35.756Z,994.01
2017-12-08T11:20:35.762Z,994.1
2017-12-08T11:21:35.779Z,994.09
2017-12-08T11:22:35.790Z,994.11
2017-12-08T11:23:35.802Z,994.09
2017-12-08T11:24:35.816Z,994.06
2017-12-08T11:25:35.829Z,994.04
2017-12-08T11:26:35.842Z,994.02
2017-12-08T11:27:35.855Z,994.1
2017-12-08T11:28:35.873Z,994.07
2017-12-08T11:29:35.882Z,994.02
2017-12-08T11:30:35.895Z,993.94
2017-12-08T11:31:35.910Z,994.05
2017-12-08T11:32:35.922Z,994
2017-12-08T11:33:35.939Z,994.02
2017-12-08T11:34:35.949Z,994.08
2017-12-08T11:35:35.964Z,994.09
2017-12-08T11:36:35.974Z,994.05
2017-12-08T11:37:35.988Z,994.04
2017-12-08T11:38:36.002Z,994.07
2017-12-08T11:39:36.015Z,994.15
2017-12-08T11:40:36.028Z,994.07
2017-12-08T11:41:36.042Z,994.05
2017-12-08T11:42:36.060Z,994.05
2017-12-08T11:43:36.071Z,993.97
2017-12-08T11:44:36.082Z,993.94
2017-12-08T11:45:36.095Z,993.94
2017-12-08T11:46:36.108Z,993.87
2017-12-08T11:47:36.121Z,993.85
2017-12-08T11:48:36.135Z,993.85
2017-12-08T11:49:36.146Z,993.82
2017-12-08T11:50:36.165Z,993.86
2017-12-08T11:51:36.174Z,993.89
2017-12-08T11:52:36.187Z,993.87
2017-12-08T11:53:36.201Z,993.82
2017-12-08T11:54:36.213Z,993.88
2017-12-08T11:55:36.227Z,993.88
2017-12-08T11:56:36.241Z,993.84
2017-12-08T11:57:36.254Z,993.8
2017-12-08T11:58:36.267Z,993.86
2017-12-08T11:59:36.280Z,993.9
2017-12-08T12:00:36.329Z,993.89
2017-12-08T12:01:36.308Z,993.93
2017-12-08T12:02:36.323Z,993.82
2017-12-08T12:03:36.334Z,993.86
2017-12-08T12:04:36.348Z,993.9
2017-12-08T12:05:36.361Z,993.9
2017-12-08T12:06:36.374Z,993.95
2017-12-08T12:07:36.388Z,993.94
2017-12-08T12:08:36.402Z,993.91
2017-12-08T12:09:36.416Z,993.94
2017-12-08T12:10:36.427Z,993.89
2017-12-08T12:11:36.442Z,993.9
2017-12-08T12:12:36.454Z,993.89
2017-12-08T12:13:36.467Z,993.98
2017-12-08T12:14:36.482Z,994.02
2017-12-08T12:15:36.495Z,994.07
2017-12-08T12:16:36.507Z,993.97
2017-12-08T12:17:36.525Z,994.02
2017-12-08T12:18:36.535Z,993.99
2017-12-08T12:19:36.549Z,994.01
2017-12-08T12:20:36.561Z,994.04
2017-12-08T12:21:36.574Z,994.04
2017-12-08T12:22:36.589Z,994.02
2017-12-08T12:23:36.601Z,993.99
2017-12-08T12:24:36.615Z,993.94
2017-12-08T12:25:36.630Z,993.97
2017-12-08T12:26:36.642Z,993.94
2017-12-08T12:27:36.654Z,993.9
2017-12-08T12:28:36.669Z,993.89
2017-12-08T12:29:36.682Z,993.91
2017-12-08T12:30:36.696Z,993.93
2017-12-08T12:31:36.716Z,993.92
2017-12-08T12:32:36.722Z,994
2017-12-08T12:33:36.737Z,993.93
2017-12-08T12:34:36.748Z,993.88
2017-12-08T12:35:36.762Z,993.82
2017-12-08T12:36:36.776Z,993.82
2017-12-08T12:37:36.792Z,993.85
2017-12-08T12:38:36.802Z,993.81
2017-12-08T12:39:36.816Z,993.74
2017-12-08T12:40:36.828Z,993.74
2017-12-08T12:41:36.843Z,993.69
2017-12-08T12:42:36.856Z,993.83
2017-12-08T12:43:36.870Z,993.74
2017-12-08T12:44:36.883Z,993.74
2017-12-08T12:45:36.896Z,993.78
2017-12-08T12:46:36.910Z,993.68
2017-12-08T12:47:36.922Z,993.63
2017-12-08T12:48:36.937Z,993.65
2017-12-08T12:49:36.950Z,993.6
2017-12-08T12:50:36.963Z,993.69
2017-12-08T12:51:36.975Z,993.72
2017-12-08T12:52:36.995Z,993.66
2017-12-08T12:53:37.003Z,993.65
2017-12-08T12:54:37.017Z,993.63
2017-12-08T12:55:37.032Z,993.64
2017-12-08T12:56:37.044Z,993.6
2017-12-08T12:57:37.056Z,993.67
2017-12-08T12:58:37.071Z,993.56
2017-12-08T12:59:37.084Z,993.66
2017-12-08T13:00:37.097Z,993.68
2017-12-08T13:01:37.111Z,993.71
2017-12-08T13:02:37.123Z,993.68
2017-12-08T13:03:37.136Z,993.74
2017-12-08T13:04:37.149Z,993.74
2017-12-08T13:05:37.164Z,993.67
2017-12-08T13:06:37.176Z,993.69
2017-12-08T13:07:37.189Z,993.69
2017-12-08T13:08:37.202Z,993.6
2017-12-08T13:09:37.220Z,993.66
2017-12-08T13:10:37.246Z,993.65
2017-12-08T13:11:37.279Z,993.6
2017-12-08T13:12:37.257Z,993.65
2017-12-08T13:13:37.271Z,993.63
2017-12-08T13:14:37.283Z,993.59
2017-12-08T13:15:37.296Z,993.6
2017-12-08T13:16:37.310Z,993.56
2017-12-08T13:17:37.323Z,993.63
2017-12-08T13:18:37.336Z,993.59
2017-12-08T13:19:37.350Z,993.59
2017-12-08T13:20:37.363Z,993.5
2017-12-08T13:21:37.378Z,993.55
2017-12-08T13:22:37.390Z,993.51
2017-12-08T13:23:37.403Z,993.53
2017-12-08T13:24:37.416Z,993.53
2017-12-08T13:25:37.430Z,993.5
2017-12-08T13:26:37.443Z,993.49
2017-12-08T13:27:37.455Z,993.49
2017-12-08T13:28:37.468Z,993.49
2017-12-08T13:29:37.482Z,993.43
2017-12-08T13:30:37.496Z,993.37
2017-12-08T13:31:37.510Z,993.29
2017-12-08T13:32:37.521Z,993.4
2017-12-08T13:33:37.535Z,993.41
2017-12-08T13:34:37.548Z,993.39
2017-12-08T13:35:37.563Z,993.39
2017-12-08T13:36:37.576Z,993.41
2017-12-08T13:37:37.588Z,993.41
2017-12-08T13:38:37.604Z,993.41
2017-12-08T13:39:37.615Z,993.4
2017-12-08T13:40:37.631Z,993.38
2017-12-08T13:41:37.644Z,993.41
2017-12-08T13:42:37.655Z,993.46
2017-12-08T13:43:37.670Z,993.43
2017-12-08T13:44:37.681Z,993.47
2017-12-08T13:45:37.693Z,993.43
2017-12-08T13:46:37.707Z,993.43
2017-12-08T13:47:37.722Z,993.47
2017-12-08T13:48:37.734Z,993.42
2017-12-08T13:49:37.746Z,993.34
2017-12-08T13:50:37.760Z,993.42
2017-12-08T13:51:37.772Z,993.48
2017-12-08T13:52:37.786Z,993.54
2017-12-08T13:53:37.851Z,993.6
2017-12-08T13:54:37.813Z,993.76
2017-12-08T13:55:37.825Z,993.77
2017-12-08T13:56:37.838Z,993.88
2017-12-08T13:57:37.851Z,994.08
2017-12-08T13:58:37.863Z,994.08
2017-12-08T13:59:37.876Z,994.27
2017-12-08T14:00:37.890Z,994.16
2017-12-08T14:01:37.903Z,994.21
2017-12-08T14:02:37.916Z,994.25
2017-12-08T14:03:37.929Z,994.22
2017-12-08T14:04:37.942Z,994.17
2017-12-08T14:05:37.955Z,994.09
2017-12-08T14:06:37.966Z,993.98
2017-12-08T14:07:37.981Z,993.92
2017-12-08T14:08:38.008Z,993.84
2017-12-08T14:09:38.007Z,993.82
2017-12-08T14:10:38.020Z,993.85
2017-12-08T14:11:38.034Z,993.88
2017-12-08T14:12:38.046Z,993.77
2017-12-08T14:13:38.058Z,993.76
2017-12-08T14:14:38.072Z,993.7
2017-12-08T14:15:38.087Z,993.69
2017-12-08T14:16:38.098Z,993.75
2017-12-08T14:17:38.110Z,993.66
2017-12-08T14:18:38.126Z,993.72
2017-12-08T14:19:38.136Z,993.68
2017-12-08T14:20:38.148Z,993.69
2017-12-08T14:21:38.170Z,993.66
2017-12-08T14:22:38.179Z,993.74
2017-12-08T14:23:38.189Z,993.75
2017-12-08T14:24:38.199Z,993.71
2017-12-08T14:25:38.213Z,993.75
2017-12-08T14:26:38.226Z,993.75
2017-12-08T14:27:38.239Z,993.58
2017-12-08T14:28:38.252Z,993.67
2017-12-08T14:29:38.266Z,993.69
2017-12-08T14:30:38.278Z,993.66
2017-12-08T14:31:38.290Z,993.67
2017-12-08T14:32:38.304Z,993.61
2017-12-08T14:33:38.316Z,993.69
2017-12-08T14:34:38.329Z,993.69
2017-12-08T14:35:38.341Z,993.69
2017-12-08T14:36:38.359Z,993.67
2017-12-08T14:37:38.368Z,993.66
2017-12-08T14:38:38.381Z,993.75
2017-12-08T14:39:38.396Z,993.73
2017-12-08T14:40:38.404Z,993.72
2017-12-08T14:41:38.418Z,993.68
2017-12-08T14:42:38.430Z,993.66
2017-12-08T14:43:38.443Z,993.68
2017-12-08T14:44:38.456Z,993.66
2017-12-08T14:45:38.468Z,993.63
2017-12-08T14:46:38.481Z,993.63
2017-12-08T14:47:38.499Z,993.71
2017-12-08T14:48:38.507Z,993.68
2017-12-08T14:49:38.519Z,993.72
2017-12-08T14:50:38.537Z,993.73
2017-12-08T14:51:38.544Z,993.73
2017-12-08T14:52:38.557Z,993.62
2017-12-08T14:53:38.571Z,993.7
2017-12-08T14:54:38.582Z,993.71
2017-12-08T14:55:38.594Z,993.72
2017-12-08T14:56:38.609Z,993.79
2017-12-08T14:57:38.620Z,993.84
2017-12-08T14:58:38.633Z,993.8
2017-12-08T14:59:38.646Z,993.82
2017-12-08T15:00:38.657Z,993.84
2017-12-08T15:01:38.671Z,993.8
2017-12-08T15:02:38.682Z,993.84
2017-12-08T15:03:38.695Z,993.89
2017-12-08T15:04:38.709Z,993.93
2017-12-08T15:05:38.719Z,993.91
2017-12-08T15:06:38.732Z,993.93
2017-12-08T15:07:38.747Z,993.95
2017-12-08T15:08:38.755Z,993.95
2017-12-08T15:09:38.770Z,993.94
2017-12-08T15:10:38.781Z,993.93
2017-12-08T15:11:38.796Z,993.92
2017-12-08T15:12:38.806Z,993.88
2017-12-08T15:13:38.818Z,993.93
2017-12-08T15:14:38.847Z,993.97
2017-12-08T15:15:38.843Z,994.02
2017-12-08T15:16:38.856Z,994.03
2017-12-08T15:17:38.867Z,994.03
2017-12-08T15:18:38.895Z,994.03
2017-12-08T15:19:38.891Z,994.02
2017-12-08T15:20:38.905Z,994.02
2017-12-08T15:21:38.918Z,994.08
2017-12-08T15:22:38.934Z,994.02
2017-12-08T15:23:38.944Z,994.02
2017-12-08T15:24:38.954Z,994.03
2017-12-08T15:25:38.966Z,994.07
2017-12-08T15:26:38.977Z,994.07
2017-12-08T15:27:38.990Z,994.06
2017-12-08T15:28:39.002Z,994.02
2017-12-08T15:29:39.014Z,994.01
2017-12-08T15:30:39.026Z,994.03
2017-12-08T15:31:39.037Z,994.02
2017-12-08T15:32:39.051Z,994.01
2017-12-08T15:33:39.062Z,994
2017-12-08T15:34:39.075Z,994.07
2017-12-08T15:35:39.086Z,994.05
2017-12-08T15:36:39.098Z,994.11
2017-12-08T15:37:39.111Z,994.13
2017-12-08T15:38:39.122Z,994.13
2017-12-08T15:39:39.134Z,994.14
2017-12-08T15:40:39.149Z,994.16
2017-12-08T15:41:39.165Z,994.07
2017-12-08T15:42:39.170Z,994.06
2017-12-08T15:43:39.182Z,994.04
2017-12-08T15:44:39.200Z,994.04
2017-12-08T15:45:39.206Z,994.01
2017-12-08T15:46:39.220Z,994.08
2017-12-08T15:47:39.236Z,994.09
2017-12-08T15:48:39.241Z,994.01
2017-12-08T15:49:39.254Z,994.02
2017-12-08T15:50:39.265Z,993.98
2017-12-08T15:51:39.279Z,994.01
2017-12-08T15:52:39.290Z,993.97
2017-12-08T15:53:39.303Z,993.91
2017-12-08T15:54:39.314Z,993.91
2017-12-08T15:55:39.327Z,993.92
2017-12-08T15:56:39.339Z,993.87
2017-12-08T15:57:39.350Z,993.88
2017-12-08T15:58:39.362Z,993.89
2017-12-08T15:59:39.373Z,993.88
2017-12-08T16:00:39.384Z,993.87
2017-12-08T16:01:39.397Z,993.83
2017-12-08T16:02:39.410Z,993.84
2017-12-08T16:03:39.421Z,993.8
2017-12-08T16:04:39.434Z,993.8
2017-12-08T16:05:39.446Z,993.81
2017-12-08T16:06:39.456Z,993.81
2017-12-08T16:07:39.470Z,993.8
2017-12-08T16:08:39.480Z,993.82
2017-12-08T16:09:39.494Z,993.78
2017-12-08T16:10:39.504Z,993.76
2017-12-08T16:11:39.516Z,993.75
2017-12-08T16:12:39.527Z,993.76
2017-12-08T16:13:39.541Z,993.75
2017-12-08T16:14:39.551Z,993.77
2017-12-08T16:15:39.565Z,993.82
2017-12-08T16:16:39.576Z,993.82
2017-12-08T16:17:39.587Z,993.76
2017-12-08T16:18:39.601Z,993.79
2017-12-08T16:19:39.610Z,993.83
2017-12-08T16:20:39.622Z,993.77
2017-12-08T16:21:39.635Z,993.8
2017-12-08T16:22:39.644Z,993.79
2017-12-08T16:23:39.659Z,993.77
2017-12-08T16:24:39.669Z,993.75
2017-12-08T16:25:39.680Z,993.76
2017-12-08T16:26:39.695Z,993.72
2017-12-08T16:27:39.704Z,993.74
2017-12-08T16:28:39.715Z,993.76
2017-12-08T16:29:39.727Z,993.75
2017-12-08T16:30:39.739Z,993.71
2017-12-08T16:31:39.753Z,993.72
2017-12-08T16:32:39.762Z,993.72
2017-12-08T16:33:39.774Z,993.76
2017-12-08T16:34:39.788Z,993.71
2017-12-08T16:35:39.799Z,993.74
2017-12-08T16:36:39.808Z,993.77
2017-12-08T16:37:39.823Z,993.79
2017-12-08T16:38:39.832Z,993.79
2017-12-08T16:39:39.843Z,993.76
2017-12-08T16:40:39.855Z,993.82
2017-12-08T16:41:39.868Z,993.77
2017-12-08T16:42:39.883Z,993.79
2017-12-08T16:43:39.892Z,993.76
2017-12-08T16:44:39.903Z,993.81
2017-12-08T16:45:39.915Z,993.78
2017-12-08T16:46:39.927Z,993.78
2017-12-08T16:47:39.938Z,993.8
2017-12-08T16:48:39.950Z,993.82
2017-12-08T16:49:39.963Z,993.87
2017-12-08T16:50:39.973Z,993.86
2017-12-08T16:51:39.985Z,993.83
2017-12-08T16:52:39.997Z,993.85
2017-12-08T16:53:40.014Z,993.88
2017-12-08T16:54:40.021Z,993.87
2017-12-08T16:55:40.035Z,993.88
2017-12-08T16:56:40.043Z,993.85
2017-12-08T16:57:40.055Z,993.92
2017-12-08T16:58:40.066Z,993.85
2017-12-08T16:59:40.081Z,993.92
2017-12-08T17:00:40.091Z,993.89
2017-12-08T17:01:40.101Z,993.89
2017-12-08T17:02:40.114Z,993.9
2017-12-08T17:03:40.126Z,993.93
2017-12-08T17:04:40.137Z,993.87
2017-12-08T17:05:40.148Z,993.88
2017-12-08T17:06:40.159Z,993.89
2017-12-08T17:07:40.174Z,993.89
2017-12-08T17:08:40.183Z,993.87
2017-12-08T17:09:40.194Z,993.88
2017-12-08T17:10:40.216Z,993.91
2017-12-08T17:11:40.219Z,993.85
2017-12-08T17:12:40.233Z,993.88
2017-12-08T17:13:40.242Z,993.88
2017-12-08T17:14:40.253Z,993.85
2017-12-08T17:15:40.266Z,993.89
2017-12-08T17:16:40.276Z,993.81
2017-12-08T17:17:40.287Z,993.82
2017-12-08T17:18:40.300Z,993.9
2017-12-08T17:19:40.311Z,993.89
2017-12-08T17:20:40.323Z,993.87
2017-12-08T17:21:40.334Z,993.9
2017-12-08T17:22:40.346Z,993.93
2017-12-08T17:23:40.358Z,993.99
2017-12-08T17:24:40.369Z,993.92
2017-12-08T17:25:40.389Z,993.99
2017-12-08T17:26:40.393Z,994.06
2017-12-08T17:27:40.407Z,994.05
2017-12-08T17:28:40.415Z,994.09
2017-12-08T17:29:40.427Z,994.08
2017-12-08T17:30:40.437Z,994.12
2017-12-08T17:31:40.450Z,994.12
2017-12-08T17:32:40.462Z,994.23
2017-12-08T17:33:40.473Z,994.23
2017-12-08T17:34:40.484Z,994.33
2017-12-08T17:35:40.495Z,994.3
2017-12-08T17:36:40.507Z,994.36
2017-12-08T17:37:40.518Z,994.35
2017-12-08T17:38:40.530Z,994.33
2017-12-08T17:39:40.542Z,994.33
2017-12-08T17:40:40.554Z,994.38
2017-12-08T17:41:40.621Z,994.39
2017-12-08T17:42:40.576Z,994.35
2017-12-08T17:43:40.590Z,994.4
2017-12-08T17:44:40.600Z,994.4
2017-12-08T17:45:40.610Z,994.4
2017-12-08T17:46:40.621Z,994.41
2017-12-08T17:47:40.637Z,994.38
2017-12-08T17:48:40.645Z,994.45
2017-12-08T17:49:40.657Z,994.39
2017-12-08T17:50:40.676Z,994.41
2017-12-08T17:51:40.680Z,994.39
2017-12-08T17:52:40.692Z,994.41
2017-12-08T17:53:40.701Z,994.44
2017-12-08T17:54:40.721Z,994.46
2017-12-08T17:55:40.725Z,994.44
2017-12-08T17:56:40.736Z,994.36
2017-12-08T17:57:40.748Z,994.38
2017-12-08T17:58:40.762Z,994.43
2017-12-08T17:59:40.770Z,994.44
2017-12-08T18:00:40.781Z,994.45
2017-12-08T18:01:40.793Z,994.53
2017-12-08T18:02:40.806Z,994.53
2017-12-08T18:03:40.815Z,994.55
2017-12-08T18:04:40.828Z,994.51
2017-12-08T18:05:40.840Z,994.54
2017-12-08T18:06:40.850Z,994.52
2017-12-08T18:07:40.862Z,994.58
2017-12-08T18:08:40.874Z,994.59
2017-12-08T18:09:40.889Z,994.63
2017-12-08T18:10:40.898Z,994.62
2017-12-08T18:11:40.906Z,994.64
2017-12-08T18:12:40.919Z,994.68
2017-12-08T18:13:40.931Z,994.71
2017-12-08T18:14:40.941Z,994.7
2017-12-08T18:15:40.952Z,994.71
2017-12-08T18:16:40.964Z,994.79
2017-12-08T18:17:40.975Z,994.74
2017-12-08T18:18:40.985Z,994.77
2017-12-08T18:19:40.999Z,994.82
2017-12-08T18:20:41.009Z,994.79
2017-12-08T18:21:41.021Z,994.83
2017-12-08T18:22:41.034Z,994.86
2017-12-08T18:23:41.044Z,994.78
2017-12-08T18:24:41.057Z,994.8
2017-12-08T18:25:41.066Z,994.86
2017-12-08T18:26:41.078Z,994.87
2017-12-08T18:27:41.097Z,994.89
2017-12-08T18:28:41.105Z,994.81
2017-12-08T18:29:41.112Z,994.81
2017-12-08T18:30:41.122Z,994.84
2017-12-08T18:31:41.135Z,994.84
2017-12-08T18:32:41.146Z,994.91
2017-12-08T18:33:41.156Z,994.9
2017-12-08T18:34:41.168Z,994.88
2017-12-08T18:35:41.180Z,994.98
2017-12-08T18:36:41.191Z,994.94
2017-12-08T18:37:41.202Z,994.96
2017-12-08T18:38:41.215Z,994.96
2017-12-08T18:39:41.226Z,995
2017-12-08T18:40:41.236Z,995
2017-12-08T18:41:41.247Z,994.99
2017-12-08T18:42:41.272Z,995.01
2017-12-08T18:43:41.272Z,994.97
2017-12-08T18:44:41.286Z,994.97
2017-12-08T18:45:41.292Z,994.98
2017-12-08T18:46:41.304Z,994.95
2017-12-08T18:47:41.317Z,994.98
2017-12-08T18:48:41.327Z,994.98
2017-12-08T18:49:41.339Z,994.95
2017-12-08T18:50:41.351Z,994.97
2017-12-08T18:51:41.361Z,994.96
2017-12-08T18:52:41.372Z,995
2017-12-08T18:53:41.383Z,995
2017-12-08T18:54:41.392Z,995.01
2017-12-08T18:55:41.405Z,994.98
2017-12-08T18:56:41.427Z,995
2017-12-08T18:57:41.428Z,994.94
2017-12-08T18:58:41.440Z,995
2017-12-08T18:59:41.452Z,994.97
2017-12-08T19:00:41.472Z,995
2017-12-08T19:01:41.474Z,995.03
2017-12-08T19:02:41.491Z,994.99
2017-12-08T19:03:41.496Z,994.99
2017-12-08T19:04:41.512Z,994.91
2017-12-08T19:05:41.519Z,994.96
2017-12-08T19:06:41.537Z,994.98
2017-12-08T19:07:41.542Z,994.95
2017-12-08T19:08:41.563Z,994.97
2017-12-08T19:09:41.564Z,995.06
2017-12-08T19:10:41.587Z,995.01
2017-12-08T19:11:41.586Z,994.95
2017-12-08T19:12:41.602Z,995.03
2017-12-08T19:13:41.608Z,994.94
2017-12-08T19:14:41.628Z,995
2017-12-08T19:15:41.632Z,994.95
2017-12-08T19:16:41.642Z,994.94
2017-12-08T19:17:41.653Z,994.95
2017-12-08T19:18:41.676Z,994.95
2017-12-08T19:19:41.677Z,994.96
2017-12-08T19:20:41.687Z,994.91
2017-12-08T19:21:41.703Z,994.96
2017-12-08T19:22:41.712Z,994.97
2017-12-08T19:23:41.722Z,994.99
2017-12-08T19:24:41.743Z,994.99
2017-12-08T19:25:41.744Z,995.03
2017-12-08T19:26:41.773Z,995.06
2017-12-08T19:27:41.766Z,995.08
2017-12-08T19:28:41.781Z,995.1
2017-12-08T19:29:41.788Z,995.15
2017-12-08T19:30:41.810Z,995.16
2017-12-08T19:31:41.811Z,995.14
2017-12-08T19:32:41.873Z,995.15
2017-12-08T19:33:41.832Z,995.18
2017-12-08T19:34:41.846Z,995.15
2017-12-08T19:35:41.855Z,995.19
2017-12-08T19:36:41.868Z,995.15
2017-12-08T19:37:41.930Z,995.21
2017-12-08T19:38:41.891Z,995.19
2017-12-08T19:39:41.905Z,995.16
2017-12-08T19:40:41.916Z,995.2
2017-12-08T19:41:41.935Z,995.21
2017-12-08T19:42:41.998Z,995.26
2017-12-08T19:43:41.946Z,995.25
2017-12-08T19:44:41.956Z,995.23
2017-12-08T19:45:41.970Z,995.31
2017-12-08T19:46:41.979Z,995.31
2017-12-08T19:47:41.992Z,995.33
2017-12-08T19:48:42.008Z,995.35
2017-12-08T19:49:42.027Z,995.38